sensor_id;sensor_type;location;lat;lon;timestamp;temperature;humidity
292;DHT22;23311;48.776;9.162;2022-10-16T00:01:38;16.60;95.50
292;DHT22;23311;48.776;9.162;2022-10-16T00:04:06;16.50;95.50
292;DHT22;23311;48.776;9.162;2022-10-16T00:06:34;16.40;95.50
292;DHT22;23311;48.776;9.162;2022-10-16T00:09:02;16.40;95.50
292;DHT22;23311;48.776;9.162;2022-10-16T00:11:34;16.40;95.50
292;DHT22;23311;48.776;9.162;2022-10-16T00:14:05;16.30;95.50
292;DHT22;23311;48.776;9.162;2022-10-16T00:16:34;16.20;95.50
292;DHT22;23311;48.776;9.162;2022-10-16T00:19:02;16.20;95.50
292;DHT22;23311;48.776;9.162;2022-10-16T00:21:31;16.10;95.50
292;DHT22;23311;48.776;9.162;2022-10-16T00:24:17;16.00;95.50
292;DHT22;23311;48.776;9.162;2022-10-16T00:26:49;15.90;95.50
292;DHT22;23311;48.776;9.162;2022-10-16T00:29:18;15.90;95.50
292;DHT22;23311;48.776;9.162;2022-10-16T00:31:46;15.80;95.50
292;DHT22;23311;48.776;9.162;2022-10-16T00:34:14;15.80;95.50
292;DHT22;23311;48.776;9.162;2022-10-16T00:36:42;15.70;95.50
292;DHT22;23311;48.776;9.162;2022-10-16T00:39:10;15.80;95.50
292;DHT22;23311;48.776;9.162;2022-10-16T00:41:38;15.80;95.50
292;DHT22;23311;48.776;9.162;2022-10-16T00:44:42;15.90;95.50
292;DHT22;23311;48.776;9.162;2022-10-16T00:47:12;16.00;95.50
292;DHT22;23311;48.776;9.162;2022-10-16T00:49:43;15.90;95.50
292;DHT22;23311;48.776;9.162;2022-10-16T00:52:12;15.80;95.50
292;DHT22;23311;48.776;9.162;2022-10-16T00:54:41;15.80;95.50
292;DHT22;23311;48.776;9.162;2022-10-16T00:57:09;15.90;95.50
292;DHT22;23311;48.776;9.162;2022-10-16T00:59:38;15.90;95.50
292;DHT22;23311;48.776;9.162;2022-10-16T01:02:13;15.90;95.50
292;DHT22;23311;48.776;9.162;2022-10-16T01:04:45;15.90;95.50
292;DHT22;23311;48.776;9.162;2022-10-16T01:07:20;15.80;95.50
292;DHT22;23311;48.776;9.162;2022-10-16T01:09:57;15.80;95.50
292;DHT22;23311;48.776;9.162;2022-10-16T01:12:34;15.90;95.50
292;DHT22;23311;48.776;9.162;2022-10-16T01:15:14;16.00;95.50
292;DHT22;23311;48.776;9.162;2022-10-16T01:17:51;16.00;95.50
292;DHT22;23311;48.776;9.162;2022-10-16T01:20:27;16.00;95.50
292;DHT22;23311;48.776;9.162;2022-10-16T01:23:09;15.90;95.50
292;DHT22;23311;48.776;9.162;2022-10-16T01:25:58;15.90;95.50
292;DHT22;23311;48.776;9.162;2022-10-16T01:28:34;15.90;95.50
292;DHT22;23311;48.776;9.162;2022-10-16T01:31:05;15.90;95.50
292;DHT22;23311;48.776;9.162;2022-10-16T01:33:37;15.90;95.50
292;DHT22;23311;48.776;9.162;2022-10-16T01:36:10;15.80;95.50
292;DHT22;23311;48.776;9.162;2022-10-16T01:38:40;15.80;95.50
292;DHT22;23311;48.776;9.162;2022-10-16T01:41:11;15.80;95.50
292;DHT22;23311;48.776;9.162;2022-10-16T01:43:45;15.90;95.50
292;DHT22;23311;48.776;9.162;2022-10-16T01:46:17;15.80;95.50
292;DHT22;23311;48.776;9.162;2022-10-16T01:48:47;15.80;95.50
292;DHT22;23311;48.776;9.162;2022-10-16T01:51:17;15.80;95.50
292;DHT22;23311;48.776;9.162;2022-10-16T01:53:48;15.80;95.50
292;DHT22;23311;48.776;9.162;2022-10-16T01:56:19;15.90;95.50
292;DHT22;23311;48.776;9.162;2022-10-16T01:58:52;15.90;95.50
292;DHT22;23311;48.776;9.162;2022-10-16T02:01:25;15.90;95.50
292;DHT22;23311;48.776;9.162;2022-10-16T02:03:56;15.90;95.50
292;DHT22;23311;48.776;9.162;2022-10-16T02:06:26;15.90;95.50
292;DHT22;23311;48.776;9.162;2022-10-16T02:08:54;15.80;95.50
292;DHT22;23311;48.776;9.162;2022-10-16T02:11:22;15.80;95.50
292;DHT22;23311;48.776;9.162;2022-10-16T02:13:55;15.80;95.50
292;DHT22;23311;48.776;9.162;2022-10-16T02:16:33;15.80;95.50
292;DHT22;23311;48.776;9.162;2022-10-16T02:19:01;15.80;95.50
292;DHT22;23311;48.776;9.162;2022-10-16T02:21:34;15.90;95.50
292;DHT22;23311;48.776;9.162;2022-10-16T02:24:09;15.90;95.50
292;DHT22;23311;48.776;9.162;2022-10-16T02:26:43;16.00;95.50
292;DHT22;23311;48.776;9.162;2022-10-16T02:29:17;16.00;95.50
292;DHT22;23311;48.776;9.162;2022-10-16T02:31:50;16.10;95.50
292;DHT22;23311;48.776;9.162;2022-10-16T02:34:19;16.20;95.50
292;DHT22;23311;48.776;9.162;2022-10-16T02:36:50;16.20;95.50
292;DHT22;23311;48.776;9.162;2022-10-16T02:39:19;16.20;95.50
292;DHT22;23311;48.776;9.162;2022-10-16T02:41:48;16.30;95.50
292;DHT22;23311;48.776;9.162;2022-10-16T02:44:17;16.30;95.50
292;DHT22;23311;48.776;9.162;2022-10-16T02:46:45;16.30;95.50
292;DHT22;23311;48.776;9.162;2022-10-16T02:49:14;16.20;95.50
292;DHT22;23311;48.776;9.162;2022-10-16T02:51:42;16.20;95.50
292;DHT22;23311;48.776;9.162;2022-10-16T02:54:10;16.30;95.50
292;DHT22;23311;48.776;9.162;2022-10-16T02:56:38;16.20;95.50
292;DHT22;23311;48.776;9.162;2022-10-16T02:59:06;16.20;95.50
292;DHT22;23311;48.776;9.162;2022-10-16T03:01:35;16.20;95.50
292;DHT22;23311;48.776;9.162;2022-10-16T03:04:04;16.20;95.50
292;DHT22;23311;48.776;9.162;2022-10-16T03:06:32;16.20;95.50
292;DHT22;23311;48.776;9.162;2022-10-16T03:09:00;16.20;95.50
292;DHT22;23311;48.776;9.162;2022-10-16T03:11:28;16.20;95.50
292;DHT22;23311;48.776;9.162;2022-10-16T03:13:56;16.20;95.50
292;DHT22;23311;48.776;9.162;2022-10-16T03:16:24;16.20;95.50
292;DHT22;23311;48.776;9.162;2022-10-16T03:18:53;16.20;95.50
292;DHT22;23311;48.776;9.162;2022-10-16T03:21:21;16.20;95.50
292;DHT22;23311;48.776;9.162;2022-10-16T03:23:49;16.10;95.50
292;DHT22;23311;48.776;9.162;2022-10-16T03:26:18;16.10;95.50
292;DHT22;23311;48.776;9.162;2022-10-16T03:28:46;16.10;95.50
292;DHT22;23311;48.776;9.162;2022-10-16T03:31:14;16.10;95.50
292;DHT22;23311;48.776;9.162;2022-10-16T03:33:42;16.10;95.50
292;DHT22;23311;48.776;9.162;2022-10-16T03:36:11;16.00;95.50
292;DHT22;23311;48.776;9.162;2022-10-16T03:38:39;16.00;95.50
292;DHT22;23311;48.776;9.162;2022-10-16T03:41:07;16.00;95.50
292;DHT22;23311;48.776;9.162;2022-10-16T03:43:35;16.00;95.50
292;DHT22;23311;48.776;9.162;2022-10-16T03:46:04;16.00;95.50
292;DHT22;23311;48.776;9.162;2022-10-16T03:48:32;15.90;95.50
292;DHT22;23311;48.776;9.162;2022-10-16T03:51:00;15.80;95.50
292;DHT22;23311;48.776;9.162;2022-10-16T03:53:30;15.90;95.50
292;DHT22;23311;48.776;9.162;2022-10-16T03:55:58;15.80;95.50
292;DHT22;23311;48.776;9.162;2022-10-16T03:58:26;15.80;95.50
292;DHT22;23311;48.776;9.162;2022-10-16T04:00:55;15.70;95.50
292;DHT22;23311;48.776;9.162;2022-10-16T04:03:23;15.70;95.50
292;DHT22;23311;48.776;9.162;2022-10-16T04:05:51;15.60;95.50
292;DHT22;23311;48.776;9.162;2022-10-16T04:08:19;15.60;95.50
292;DHT22;23311;48.776;9.162;2022-10-16T04:10:49;15.60;95.50
292;DHT22;23311;48.776;9.162;2022-10-16T04:13:17;15.60;95.50
292;DHT22;23311;48.776;9.162;2022-10-16T04:15:46;15.50;95.50
292;DHT22;23311;48.776;9.162;2022-10-16T04:18:14;15.60;95.50
292;DHT22;23311;48.776;9.162;2022-10-16T04:20:42;15.50;95.50
292;DHT22;23311;48.776;9.162;2022-10-16T04:23:10;15.50;95.50
292;DHT22;23311;48.776;9.162;2022-10-16T04:25:38;15.60;95.50
292;DHT22;23311;48.776;9.162;2022-10-16T04:28:07;15.50;95.50
292;DHT22;23311;48.776;9.162;2022-10-16T04:30:38;15.40;95.50
292;DHT22;23311;48.776;9.162;2022-10-16T04:33:07;15.40;95.50
292;DHT22;23311;48.776;9.162;2022-10-16T04:35:36;15.40;95.50
292;DHT22;23311;48.776;9.162;2022-10-16T04:38:04;15.50;95.50
292;DHT22;23311;48.776;9.162;2022-10-16T04:40:32;15.50;95.50
292;DHT22;23311;48.776;9.162;2022-10-16T04:43:03;15.50;95.50
292;DHT22;23311;48.776;9.162;2022-10-16T04:45:32;15.50;95.50
292;DHT22;23311;48.776;9.162;2022-10-16T04:48:00;15.50;95.50
292;DHT22;23311;48.776;9.162;2022-10-16T04:50:28;15.40;95.50
292;DHT22;23311;48.776;9.162;2022-10-16T04:52:56;15.40;95.50
292;DHT22;23311;48.776;9.162;2022-10-16T04:55:24;15.40;95.50
292;DHT22;23311;48.776;9.162;2022-10-16T04:57:52;15.40;95.50
292;DHT22;23311;48.776;9.162;2022-10-16T05:00:20;15.30;95.50
292;DHT22;23311;48.776;9.162;2022-10-16T05:02:51;15.30;95.50
292;DHT22;23311;48.776;9.162;2022-10-16T05:05:19;15.30;95.50
292;DHT22;23311;48.776;9.162;2022-10-16T05:07:47;15.20;95.50
292;DHT22;23311;48.776;9.162;2022-10-16T05:10:16;15.20;95.50
292;DHT22;23311;48.776;9.162;2022-10-16T05:12:44;15.20;95.50
292;DHT22;23311;48.776;9.162;2022-10-16T05:15:12;15.20;95.50
292;DHT22;23311;48.776;9.162;2022-10-16T05:17:40;15.20;95.50
292;DHT22;23311;48.776;9.162;2022-10-16T05:20:12;15.20;95.50
292;DHT22;23311;48.776;9.162;2022-10-16T05:22:40;15.20;95.50
292;DHT22;23311;48.776;9.162;2022-10-16T05:25:08;15.20;95.50
292;DHT22;23311;48.776;9.162;2022-10-16T05:27:36;15.20;95.50
292;DHT22;23311;48.776;9.162;2022-10-16T05:30:05;15.10;95.50
292;DHT22;23311;48.776;9.162;2022-10-16T05:32:38;15.00;95.50
292;DHT22;23311;48.776;9.162;2022-10-16T05:35:07;15.00;95.50
292;DHT22;23311;48.776;9.162;2022-10-16T05:37:39;14.90;95.50
292;DHT22;23311;48.776;9.162;2022-10-16T05:40:08;14.90;95.50
292;DHT22;23311;48.776;9.162;2022-10-16T05:42:37;14.70;95.50
292;DHT22;23311;48.776;9.162;2022-10-16T05:45:06;14.70;95.50
292;DHT22;23311;48.776;9.162;2022-10-16T05:47:34;14.70;95.50
292;DHT22;23311;48.776;9.162;2022-10-16T05:50:03;14.60;95.50
292;DHT22;23311;48.776;9.162;2022-10-16T05:52:31;14.60;95.50
292;DHT22;23311;48.776;9.162;2022-10-16T05:55:01;14.60;95.50
292;DHT22;23311;48.776;9.162;2022-10-16T05:57:29;14.60;95.50
292;DHT22;23311;48.776;9.162;2022-10-16T05:59:57;14.90;95.50
292;DHT22;23311;48.776;9.162;2022-10-16T06:02:25;14.90;95.50
292;DHT22;23311;48.776;9.162;2022-10-16T06:04:54;15.00;95.50
292;DHT22;23311;48.776;9.162;2022-10-16T06:07:22;15.10;95.50
292;DHT22;23311;48.776;9.162;2022-10-16T06:09:51;15.10;95.50
292;DHT22;23311;48.776;9.162;2022-10-16T06:12:21;15.10;95.50
292;DHT22;23311;48.776;9.162;2022-10-16T06:14:49;15.10;95.50
292;DHT22;23311;48.776;9.162;2022-10-16T06:17:17;15.10;95.50
292;DHT22;23311;48.776;9.162;2022-10-16T06:19:45;15.10;95.50
292;DHT22;23311;48.776;9.162;2022-10-16T06:22:13;15.20;95.50
292;DHT22;23311;48.776;9.162;2022-10-16T06:24:41;15.30;95.50
292;DHT22;23311;48.776;9.162;2022-10-16T06:27:09;15.40;95.50
292;DHT22;23311;48.776;9.162;2022-10-16T06:29:39;15.40;95.50
292;DHT22;23311;48.776;9.162;2022-10-16T06:32:07;15.40;95.50
292;DHT22;23311;48.776;9.162;2022-10-16T06:34:35;15.50;95.50
292;DHT22;23311;48.776;9.162;2022-10-16T06:37:09;15.60;95.50
292;DHT22;23311;48.776;9.162;2022-10-16T06:39:37;15.70;95.50
292;DHT22;23311;48.776;9.162;2022-10-16T06:42:06;15.80;95.50
292;DHT22;23311;48.776;9.162;2022-10-16T06:44:34;15.80;95.50
292;DHT22;23311;48.776;9.162;2022-10-16T06:47:03;15.90;95.50
292;DHT22;23311;48.776;9.162;2022-10-16T06:49:31;15.90;95.50
292;DHT22;23311;48.776;9.162;2022-10-16T06:51:59;16.10;95.50
292;DHT22;23311;48.776;9.162;2022-10-16T06:54:28;16.30;95.50
292;DHT22;23311;48.776;9.162;2022-10-16T06:57:05;16.30;95.50
292;DHT22;23311;48.776;9.162;2022-10-16T06:59:36;16.30;95.50
292;DHT22;23311;48.776;9.162;2022-10-16T07:02:06;16.40;95.50
292;DHT22;23311;48.776;9.162;2022-10-16T07:04:36;16.50;95.50
292;DHT22;23311;48.776;9.162;2022-10-16T07:07:04;16.60;95.50
292;DHT22;23311;48.776;9.162;2022-10-16T07:09:35;16.80;95.50
292;DHT22;23311;48.776;9.162;2022-10-16T07:12:04;16.90;95.50
292;DHT22;23311;48.776;9.162;2022-10-16T07:14:32;17.00;95.50
292;DHT22;23311;48.776;9.162;2022-10-16T07:17:00;17.10;95.50
292;DHT22;23311;48.776;9.162;2022-10-16T07:19:29;17.40;95.50
292;DHT22;23311;48.776;9.162;2022-10-16T07:22:00;17.60;95.50
292;DHT22;23311;48.776;9.162;2022-10-16T07:24:29;17.60;95.50
292;DHT22;23311;48.776;9.162;2022-10-16T07:26:57;17.50;95.50
292;DHT22;23311;48.776;9.162;2022-10-16T07:29:25;17.50;95.50
292;DHT22;23311;48.776;9.162;2022-10-16T07:31:53;17.30;95.50
292;DHT22;23311;48.776;9.162;2022-10-16T07:34:22;17.20;95.50
292;DHT22;23311;48.776;9.162;2022-10-16T07:36:51;17.10;95.50
292;DHT22;23311;48.776;9.162;2022-10-16T07:39:19;17.10;95.50
292;DHT22;23311;48.776;9.162;2022-10-16T07:41:47;17.10;95.50
292;DHT22;23311;48.776;9.162;2022-10-16T07:44:15;17.20;95.50
292;DHT22;23311;48.776;9.162;2022-10-16T07:46:43;17.30;95.50
292;DHT22;23311;48.776;9.162;2022-10-16T07:49:11;17.40;95.50
292;DHT22;23311;48.776;9.162;2022-10-16T07:51:39;17.50;95.50
292;DHT22;23311;48.776;9.162;2022-10-16T07:54:09;17.60;95.50
292;DHT22;23311;48.776;9.162;2022-10-16T07:56:37;17.80;95.50
292;DHT22;23311;48.776;9.162;2022-10-16T07:59:09;17.90;95.50
292;DHT22;23311;48.776;9.162;2022-10-16T08:01:37;17.90;95.50
292;DHT22;23311;48.776;9.162;2022-10-16T08:04:06;18.00;95.50
292;DHT22;23311;48.776;9.162;2022-10-16T08:06:36;18.10;95.50
292;DHT22;23311;48.776;9.162;2022-10-16T08:09:05;18.20;95.50
292;DHT22;23311;48.776;9.162;2022-10-16T08:11:34;18.40;95.50
292;DHT22;23311;48.776;9.162;2022-10-16T08:14:02;18.60;95.50
292;DHT22;23311;48.776;9.162;2022-10-16T08:16:30;18.80;95.50
292;DHT22;23311;48.776;9.162;2022-10-16T08:18:58;19.00;95.50
292;DHT22;23311;48.776;9.162;2022-10-16T08:21:26;19.10;95.50
292;DHT22;23311;48.776;9.162;2022-10-16T08:23:54;19.30;95.50
292;DHT22;23311;48.776;9.162;2022-10-16T08:26:25;19.50;95.50
292;DHT22;23311;48.776;9.162;2022-10-16T08:28:55;19.70;95.50
292;DHT22;23311;48.776;9.162;2022-10-16T08:31:23;19.80;95.50
292;DHT22;23311;48.776;9.162;2022-10-16T08:33:53;19.70;95.50
292;DHT22;23311;48.776;9.162;2022-10-16T08:36:21;19.60;95.50
292;DHT22;23311;48.776;9.162;2022-10-16T08:38:49;19.70;95.50
292;DHT22;23311;48.776;9.162;2022-10-16T08:41:37;19.90;95.50
292;DHT22;23311;48.776;9.162;2022-10-16T08:47:29;19.90;95.50
292;DHT22;23311;48.776;9.162;2022-10-16T08:50:09;19.70;95.50
292;DHT22;23311;48.776;9.162;2022-10-16T08:52:40;19.50;95.50
292;DHT22;23311;48.776;9.162;2022-10-16T08:55:17;19.40;95.50
292;DHT22;23311;48.776;9.162;2022-10-16T08:57:49;19.50;95.50
292;DHT22;23311;48.776;9.162;2022-10-16T09:00:18;19.50;95.50
292;DHT22;23311;48.776;9.162;2022-10-16T09:02:53;19.60;95.50
292;DHT22;23311;48.776;9.162;2022-10-16T09:05:43;19.70;95.50
292;DHT22;23311;48.776;9.162;2022-10-16T09:08:19;19.80;95.50
292;DHT22;23311;48.776;9.162;2022-10-16T09:10:56;19.80;95.50
292;DHT22;23311;48.776;9.162;2022-10-16T09:13:28;19.90;95.50
292;DHT22;23311;48.776;9.162;2022-10-16T09:16:08;19.90;95.50
292;DHT22;23311;48.776;9.162;2022-10-16T09:18:43;20.00;95.50
292;DHT22;23311;48.776;9.162;2022-10-16T09:21:16;20.60;95.50
292;DHT22;23311;48.776;9.162;2022-10-16T09:23:45;20.80;95.50
292;DHT22;23311;48.776;9.162;2022-10-16T09:26:16;20.80;95.50
292;DHT22;23311;48.776;9.162;2022-10-16T09:28:46;20.90;95.50
292;DHT22;23311;48.776;9.162;2022-10-16T09:31:19;20.90;95.10
292;DHT22;23311;48.776;9.162;2022-10-16T09:33:52;20.70;95.00
292;DHT22;23311;48.776;9.162;2022-10-16T09:36:21;20.80;95.20
292;DHT22;23311;48.776;9.162;2022-10-16T09:39:02;20.70;95.10
292;DHT22;23311;48.776;9.162;2022-10-16T09:41:33;20.60;95.50
292;DHT22;23311;48.776;9.162;2022-10-16T09:44:03;20.40;95.50
292;DHT22;23311;48.776;9.162;2022-10-16T09:46:34;20.30;95.50
292;DHT22;23311;48.776;9.162;2022-10-16T09:49:05;20.30;95.50
292;DHT22;23311;48.776;9.162;2022-10-16T09:51:35;20.30;95.50
292;DHT22;23311;48.776;9.162;2022-10-16T09:54:14;20.60;95.50
292;DHT22;23311;48.776;9.162;2022-10-16T09:56:42;21.20;95.20
292;DHT22;23311;48.776;9.162;2022-10-16T09:59:13;21.60;94.20
292;DHT22;23311;48.776;9.162;2022-10-16T10:01:45;21.80;93.50
292;DHT22;23311;48.776;9.162;2022-10-16T10:04:15;21.80;92.90
292;DHT22;23311;48.776;9.162;2022-10-16T10:06:46;21.90;92.90
292;DHT22;23311;48.776;9.162;2022-10-16T10:09:18;22.10;91.90
292;DHT22;23311;48.776;9.162;2022-10-16T10:11:50;22.40;91.70
292;DHT22;23311;48.776;9.162;2022-10-16T10:14:24;22.50;91.60
292;DHT22;23311;48.776;9.162;2022-10-16T10:17:06;22.90;90.10
292;DHT22;23311;48.776;9.162;2022-10-16T10:19:40;23.20;89.10
292;DHT22;23311;48.776;9.162;2022-10-16T10:22:25;23.30;87.70
292;DHT22;23311;48.776;9.162;2022-10-16T10:25:04;23.60;87.10
292;DHT22;23311;48.776;9.162;2022-10-16T10:27:47;23.70;86.40
292;DHT22;23311;48.776;9.162;2022-10-16T10:30:20;23.70;86.00
292;DHT22;23311;48.776;9.162;2022-10-16T10:33:00;23.60;85.60
292;DHT22;23311;48.776;9.162;2022-10-16T10:35:42;23.90;85.80
292;DHT22;23311;48.776;9.162;2022-10-16T10:38:25;24.20;84.80
292;DHT22;23311;48.776;9.162;2022-10-16T10:41:01;24.30;84.50
292;DHT22;23311;48.776;9.162;2022-10-16T10:43:49;24.70;83.80
292;DHT22;23311;48.776;9.162;2022-10-16T10:46:29;24.90;82.80
292;DHT22;23311;48.776;9.162;2022-10-16T10:49:13;25.30;81.40
292;DHT22;23311;48.776;9.162;2022-10-16T10:51:51;25.50;81.00
292;DHT22;23311;48.776;9.162;2022-10-16T10:54:27;26.80;78.70
292;DHT22;23311;48.776;9.162;2022-10-16T10:56:59;28.10;75.00
292;DHT22;23311;48.776;9.162;2022-10-16T10:59:41;28.20;74.90
292;DHT22;23311;48.776;9.162;2022-10-16T11:02:17;27.10;76.80
292;DHT22;23311;48.776;9.162;2022-10-16T11:05:00;26.20;80.70
292;DHT22;23311;48.776;9.162;2022-10-16T11:07:36;25.60;81.80
292;DHT22;23311;48.776;9.162;2022-10-16T11:10:13;24.70;83.60
292;DHT22;23311;48.776;9.162;2022-10-16T11:12:44;24.10;85.90
292;DHT22;23311;48.776;9.162;2022-10-16T11:15:15;23.90;86.20
292;DHT22;23311;48.776;9.162;2022-10-16T11:17:49;24.00;85.90
292;DHT22;23311;48.776;9.162;2022-10-16T11:20:20;24.00;86.10
292;DHT22;23311;48.776;9.162;2022-10-16T11:22:55;24.00;86.10
292;DHT22;23311;48.776;9.162;2022-10-16T11:25:26;24.20;85.70
292;DHT22;23311;48.776;9.162;2022-10-16T11:27:58;24.20;85.20
292;DHT22;23311;48.776;9.162;2022-10-16T11:30:31;24.60;84.10
292;DHT22;23311;48.776;9.162;2022-10-16T11:33:12;24.80;83.80
292;DHT22;23311;48.776;9.162;2022-10-16T11:35:51;25.20;83.20
292;DHT22;23311;48.776;9.162;2022-10-16T11:38:27;25.30;82.60
292;DHT22;23311;48.776;9.162;2022-10-16T11:40:59;25.50;82.10
292;DHT22;23311;48.776;9.162;2022-10-16T11:43:32;25.60;81.60
292;DHT22;23311;48.776;9.162;2022-10-16T11:46:05;25.90;81.30
292;DHT22;23311;48.776;9.162;2022-10-16T11:48:39;26.90;78.40
292;DHT22;23311;48.776;9.162;2022-10-16T11:51:16;27.00;77.90
292;DHT22;23311;48.776;9.162;2022-10-16T11:53:53;26.50;79.00
292;DHT22;23311;48.776;9.162;2022-10-16T11:56:25;27.20;77.20
292;DHT22;23311;48.776;9.162;2022-10-16T11:58:58;28.50;72.40
292;DHT22;23311;48.776;9.162;2022-10-16T12:01:31;29.30;69.60
292;DHT22;23311;48.776;9.162;2022-10-16T12:04:06;29.20;69.30
292;DHT22;23311;48.776;9.162;2022-10-16T12:06:42;29.10;69.90
292;DHT22;23311;48.776;9.162;2022-10-16T12:09:19;29.00;69.70
292;DHT22;23311;48.776;9.162;2022-10-16T12:11:48;28.60;70.10
292;DHT22;23311;48.776;9.162;2022-10-16T12:14:32;28.00;71.70
292;DHT22;23311;48.776;9.162;2022-10-16T12:17:24;27.80;72.00
292;DHT22;23311;48.776;9.162;2022-10-16T12:20:00;27.20;73.70
292;DHT22;23311;48.776;9.162;2022-10-16T12:22:30;26.80;74.80
292;DHT22;23311;48.776;9.162;2022-10-16T12:25:17;27.50;73.40
292;DHT22;23311;48.776;9.162;2022-10-16T12:27:54;28.60;71.20
292;DHT22;23311;48.776;9.162;2022-10-16T12:30:24;29.70;68.70
292;DHT22;23311;48.776;9.162;2022-10-16T12:32:58;29.40;68.30
292;DHT22;23311;48.776;9.162;2022-10-16T12:35:30;28.50;70.90
292;DHT22;23311;48.776;9.162;2022-10-16T12:38:08;27.20;73.80
292;DHT22;23311;48.776;9.162;2022-10-16T12:40:56;27.30;74.90
292;DHT22;23311;48.776;9.162;2022-10-16T12:43:34;28.00;74.10
292;DHT22;23311;48.776;9.162;2022-10-16T12:46:05;28.70;72.10
292;DHT22;23311;48.776;9.162;2022-10-16T12:48:47;28.90;71.50
292;DHT22;23311;48.776;9.162;2022-10-16T12:51:35;29.20;70.60
292;DHT22;23311;48.776;9.162;2022-10-16T12:54:05;27.70;73.00
292;DHT22;23311;48.776;9.162;2022-10-16T12:56:50;26.80;75.50
292;DHT22;23311;48.776;9.162;2022-10-16T12:59:28;26.00;77.20
292;DHT22;23311;48.776;9.162;2022-10-16T13:02:14;25.40;78.70
292;DHT22;23311;48.776;9.162;2022-10-16T13:05:05;24.80;80.50
292;DHT22;23311;48.776;9.162;2022-10-16T13:07:53;24.70;81.20
292;DHT22;23311;48.776;9.162;2022-10-16T13:10:27;24.60;81.80
292;DHT22;23311;48.776;9.162;2022-10-16T13:13:16;24.60;81.60
292;DHT22;23311;48.776;9.162;2022-10-16T13:15:57;24.90;81.20
292;DHT22;23311;48.776;9.162;2022-10-16T13:18:34;25.00;81.00
292;DHT22;23311;48.776;9.162;2022-10-16T13:21:17;24.90;80.80
292;DHT22;23311;48.776;9.162;2022-10-16T13:23:53;24.90;81.30
292;DHT22;23311;48.776;9.162;2022-10-16T13:26:32;25.00;81.00
292;DHT22;23311;48.776;9.162;2022-10-16T13:29:06;25.00;80.70
292;DHT22;23311;48.776;9.162;2022-10-16T13:31:36;24.90;80.80
292;DHT22;23311;48.776;9.162;2022-10-16T13:34:05;24.90;80.50
292;DHT22;23311;48.776;9.162;2022-10-16T13:36:44;24.70;80.80
292;DHT22;23311;48.776;9.162;2022-10-16T13:39:14;24.60;81.50
292;DHT22;23311;48.776;9.162;2022-10-16T13:41:44;24.50;81.50
292;DHT22;23311;48.776;9.162;2022-10-16T13:44:17;24.60;81.70
292;DHT22;23311;48.776;9.162;2022-10-16T13:46:58;24.70;80.80
292;DHT22;23311;48.776;9.162;2022-10-16T13:49:27;24.90;80.70
292;DHT22;23311;48.776;9.162;2022-10-16T13:51:56;25.10;80.30
292;DHT22;23311;48.776;9.162;2022-10-16T13:54:27;25.30;80.30
292;DHT22;23311;48.776;9.162;2022-10-16T13:57:04;25.30;79.80
292;DHT22;23311;48.776;9.162;2022-10-16T13:59:53;25.20;80.40
292;DHT22;23311;48.776;9.162;2022-10-16T14:02:30;25.20;80.40
292;DHT22;23311;48.776;9.162;2022-10-16T14:05:02;24.80;80.90
292;DHT22;23311;48.776;9.162;2022-10-16T14:07:33;24.70;81.90
292;DHT22;23311;48.776;9.162;2022-10-16T14:10:05;24.40;82.60
292;DHT22;23311;48.776;9.162;2022-10-16T14:12:34;24.30;82.30
292;DHT22;23311;48.776;9.162;2022-10-16T14:15:15;24.20;82.10
292;DHT22;23311;48.776;9.162;2022-10-16T14:17:46;24.20;82.60
292;DHT22;23311;48.776;9.162;2022-10-16T14:20:15;24.20;82.10
292;DHT22;23311;48.776;9.162;2022-10-16T14:22:44;24.30;81.80
292;DHT22;23311;48.776;9.162;2022-10-16T14:25:23;24.10;82.20
292;DHT22;23311;48.776;9.162;2022-10-16T14:28:01;24.10;82.20
292;DHT22;23311;48.776;9.162;2022-10-16T14:30:33;24.20;81.90
292;DHT22;23311;48.776;9.162;2022-10-16T14:33:03;24.40;81.90
292;DHT22;23311;48.776;9.162;2022-10-16T14:35:33;24.50;81.40
292;DHT22;23311;48.776;9.162;2022-10-16T14:38:02;24.60;81.50
292;DHT22;23311;48.776;9.162;2022-10-16T14:40:32;24.50;81.60
292;DHT22;23311;48.776;9.162;2022-10-16T14:43:02;24.50;81.60
292;DHT22;23311;48.776;9.162;2022-10-16T14:45:33;24.50;81.80
292;DHT22;23311;48.776;9.162;2022-10-16T14:48:04;24.50;83.10
292;DHT22;23311;48.776;9.162;2022-10-16T14:50:33;24.40;82.90
292;DHT22;23311;48.776;9.162;2022-10-16T14:53:01;24.40;83.90
292;DHT22;23311;48.776;9.162;2022-10-16T14:55:29;24.30;82.00
292;DHT22;23311;48.776;9.162;2022-10-16T14:58:04;24.30;82.60
292;DHT22;23311;48.776;9.162;2022-10-16T15:00:33;24.30;81.40
292;DHT22;23311;48.776;9.162;2022-10-16T15:03:02;24.20;81.40
292;DHT22;23311;48.776;9.162;2022-10-16T15:05:30;24.10;82.80
292;DHT22;23311;48.776;9.162;2022-10-16T15:08:02;24.20;82.20
292;DHT22;23311;48.776;9.162;2022-10-16T15:10:32;24.10;83.40
292;DHT22;23311;48.776;9.162;2022-10-16T15:13:03;23.90;84.50
292;DHT22;23311;48.776;9.162;2022-10-16T15:15:35;23.80;85.30
292;DHT22;23311;48.776;9.162;2022-10-16T15:18:04;23.70;85.80
292;DHT22;23311;48.776;9.162;2022-10-16T15:20:34;23.60;86.00
292;DHT22;23311;48.776;9.162;2022-10-16T15:23:04;23.60;86.50
292;DHT22;23311;48.776;9.162;2022-10-16T15:25:36;23.50;87.10
292;DHT22;23311;48.776;9.162;2022-10-16T15:28:06;23.50;87.30
292;DHT22;23311;48.776;9.162;2022-10-16T15:30:36;23.40;87.20
292;DHT22;23311;48.776;9.162;2022-10-16T15:33:08;23.30;88.00
292;DHT22;23311;48.776;9.162;2022-10-16T15:35:39;23.10;88.60
292;DHT22;23311;48.776;9.162;2022-10-16T15:38:11;23.00;89.20
292;DHT22;23311;48.776;9.162;2022-10-16T15:40:40;22.80;89.60
292;DHT22;23311;48.776;9.162;2022-10-16T15:43:09;22.70;90.20
292;DHT22;23311;48.776;9.162;2022-10-16T15:45:39;22.50;90.50
292;DHT22;23311;48.776;9.162;2022-10-16T15:48:10;22.50;90.90
292;DHT22;23311;48.776;9.162;2022-10-16T15:50:39;22.50;91.40
292;DHT22;23311;48.776;9.162;2022-10-16T15:53:10;22.50;91.50
292;DHT22;23311;48.776;9.162;2022-10-16T15:55:38;22.40;91.70
292;DHT22;23311;48.776;9.162;2022-10-16T15:58:06;22.40;91.80
292;DHT22;23311;48.776;9.162;2022-10-16T16:00:34;22.30;92.20
292;DHT22;23311;48.776;9.162;2022-10-16T16:03:03;22.30;92.40
292;DHT22;23311;48.776;9.162;2022-10-16T16:05:31;22.20;92.90
292;DHT22;23311;48.776;9.162;2022-10-16T16:08:00;22.00;93.40
292;DHT22;23311;48.776;9.162;2022-10-16T16:10:28;21.80;94.50
292;DHT22;23311;48.776;9.162;2022-10-16T16:12:56;21.60;95.40
292;DHT22;23311;48.776;9.162;2022-10-16T16:15:24;21.30;95.50
292;DHT22;23311;48.776;9.162;2022-10-16T16:17:52;21.10;95.50
292;DHT22;23311;48.776;9.162;2022-10-16T16:20:22;21.10;95.50
292;DHT22;23311;48.776;9.162;2022-10-16T16:22:50;20.90;95.50
292;DHT22;23311;48.776;9.162;2022-10-16T16:25:18;20.70;95.50
292;DHT22;23311;48.776;9.162;2022-10-16T16:27:49;20.60;95.50
292;DHT22;23311;48.776;9.162;2022-10-16T16:30:18;20.40;95.50
292;DHT22;23311;48.776;9.162;2022-10-16T16:32:53;20.30;95.50
292;DHT22;23311;48.776;9.162;2022-10-16T16:35:22;20.10;95.50